sensor_id;sensor_type;location;lat;lon;timestamp;P1;durP1;ratioP1;P2;durP2;ratioP2
14153;SDS011;7157;53.144;7.570;2023-11-21T00:04:56;33.55;;;8.43;;
14153;SDS011;7157;53.144;7.570;2023-11-21T00:14:58;22.55;;;7.93;;
14153;SDS011;7157;53.144;7.570;2023-11-21T00:25:03;27.80;;;7.93;;
14153;SDS011;7157;53.144;7.570;2023-11-21T00:35:06;42.45;;;9.30;;
14153;SDS011;7157;53.144;7.570;2023-11-21T00:45:10;29.50;;;9.27;;
14153;SDS011;7157;53.144;7.570;2023-11-21T00:55:13;34.03;;;10.48;;
14153;SDS011;7157;53.144;7.570;2023-11-21T01:05:18;40.17;;;10.98;;
14153;SDS011;7157;53.144;7.570;2023-11-21T01:15:21;39.83;;;10.20;;
14153;SDS011;7157;53.144;7.570;2023-11-21T01:25:28;40.42;;;10.70;;
14153;SDS011;7157;53.144;7.570;2023-11-21T01:35:31;30.25;;;9.43;;
14153;SDS011;7157;53.144;7.570;2023-11-21T01:45:36;32.00;;;10.77;;
14153;SDS011;7157;53.144;7.570;2023-11-21T01:55:40;37.55;;;10.43;;
14153;SDS011;7157;53.144;7.570;2023-11-21T02:05:46;38.45;;;11.65;;
14153;SDS011;7157;53.144;7.570;2023-11-21T02:15:49;32.30;;;10.95;;
14153;SDS011;7157;53.144;7.570;2023-11-21T02:25:54;44.10;;;12.52;;
14153;SDS011;7157;53.144;7.570;2023-11-21T02:35:57;49.72;;;11.98;;
14153;SDS011;7157;53.144;7.570;2023-11-21T02:46:02;45.30;;;12.23;;
14153;SDS011;7157;53.144;7.570;2023-11-21T02:56:05;53.17;;;13.07;;
14153;SDS011;7157;53.144;7.570;2023-11-21T03:06:09;43.75;;;13.70;;
14153;SDS011;7157;53.144;7.570;2023-11-21T03:16:12;52.13;;;14.48;;
14153;SDS011;7157;53.144;7.570;2023-11-21T03:26:16;44.55;;;13.30;;
14153;SDS011;7157;53.144;7.570;2023-11-21T03:36:19;42.35;;;12.82;;
14153;SDS011;7157;53.144;7.570;2023-11-21T03:46:23;44.58;;;13.60;;
14153;SDS011;7157;53.144;7.570;2023-11-21T03:56:26;47.03;;;11.95;;
14153;SDS011;7157;53.144;7.570;2023-11-21T04:06:30;41.30;;;12.82;;
14153;SDS011;7157;53.144;7.570;2023-11-21T04:16:34;46.78;;;14.60;;
14153;SDS011;7157;53.144;7.570;2023-11-21T04:26:38;31.40;;;11.07;;
14153;SDS011;7157;53.144;7.570;2023-11-21T04:36:41;33.83;;;11.05;;
14153;SDS011;7157;53.144;7.570;2023-11-21T04:46:45;37.17;;;10.18;;
14153;SDS011;7157;53.144;7.570;2023-11-21T04:56:48;33.03;;;9.90;;
14153;SDS011;7157;53.144;7.570;2023-11-21T05:06:52;34.58;;;10.75;;
14153;SDS011;7157;53.144;7.570;2023-11-21T05:16:54;35.47;;;10.55;;
14153;SDS011;7157;53.144;7.570;2023-11-21T05:26:59;46.13;;;10.52;;
14153;SDS011;7157;53.144;7.570;2023-11-21T05:37:01;40.17;;;10.68;;
14153;SDS011;7157;53.144;7.570;2023-11-21T05:47:07;36.28;;;10.95;;
14153;SDS011;7157;53.144;7.570;2023-11-21T05:57:11;40.72;;;10.88;;
14153;SDS011;7157;53.144;7.570;2023-11-21T06:07:15;33.28;;;11.63;;
14153;SDS011;7157;53.144;7.570;2023-11-21T06:17:17;28.83;;;12.00;;
14153;SDS011;7157;53.144;7.570;2023-11-21T06:27:21;31.75;;;12.07;;
14153;SDS011;7157;53.144;7.570;2023-11-21T06:37:26;32.42;;;13.38;;
14153;SDS011;7157;53.144;7.570;2023-11-21T06:47:30;29.90;;;12.90;;
14153;SDS011;7157;53.144;7.570;2023-11-21T06:57:34;42.85;;;14.68;;
14153;SDS011;7157;53.144;7.570;2023-11-21T07:07:38;38.17;;;14.13;;
14153;SDS011;7157;53.144;7.570;2023-11-21T07:17:41;35.28;;;13.63;;
14153;SDS011;7157;53.144;7.570;2023-11-21T07:27:46;31.38;;;13.40;;
14153;SDS011;7157;53.144;7.570;2023-11-21T07:37:48;35.65;;;13.40;;
14153;SDS011;7157;53.144;7.570;2023-11-21T07:47:53;30.27;;;11.68;;
14153;SDS011;7157;53.144;7.570;2023-11-21T07:57:56;23.60;;;10.85;;
14153;SDS011;7157;53.144;7.570;2023-11-21T08:08:00;26.00;;;10.85;;
14153;SDS011;7157;53.144;7.570;2023-11-21T08:18:03;19.05;;;8.80;;
14153;SDS011;7157;53.144;7.570;2023-11-21T08:28:09;18.48;;;8.25;;
14153;SDS011;7157;53.144;7.570;2023-11-21T08:38:12;16.73;;;7.88;;
14153;SDS011;7157;53.144;7.570;2023-11-21T08:48:16;15.13;;;7.90;;
14153;SDS011;7157;53.144;7.570;2023-11-21T08:58:19;12.40;;;6.63;;
14153;SDS011;7157;53.144;7.570;2023-11-21T09:08:24;12.30;;;7.10;;
14153;SDS011;7157;53.144;7.570;2023-11-21T09:18:26;14.77;;;6.78;;
14153;SDS011;7157;53.144;7.570;2023-11-21T09:28:31;14.98;;;5.82;;
14153;SDS011;7157;53.144;7.570;2023-11-21T09:38:33;11.73;;;6.13;;
14153;SDS011;7157;53.144;7.570;2023-11-21T09:48:38;11.02;;;6.07;;
14153;SDS011;7157;53.144;7.570;2023-11-21T09:58:42;11.73;;;6.20;;
14153;SDS011;7157;53.144;7.570;2023-11-21T10:08:47;10.52;;;5.70;;
14153;SDS011;7157;53.144;7.570;2023-11-21T10:18:56;10.35;;;5.93;;
14153;SDS011;7157;53.144;7.570;2023-11-21T10:29:13;13.43;;;5.68;;
14153;SDS011;7157;53.144;7.570;2023-11-21T10:39:18;10.95;;;5.60;;
14153;SDS011;7157;53.144;7.570;2023-11-21T10:49:24;10.70;;;5.53;;
14153;SDS011;7157;53.144;7.570;2023-11-21T10:59:28;9.60;;;5.70;;
14153;SDS011;7157;53.144;7.570;2023-11-21T11:09:34;10.30;;;5.82;;
14153;SDS011;7157;53.144;7.570;2023-11-21T11:19:37;12.90;;;6.68;;
14153;SDS011;7157;53.144;7.570;2023-11-21T11:29:42;10.73;;;6.18;;
14153;SDS011;7157;53.144;7.570;2023-11-21T11:39:56;9.13;;;5.10;;
14153;SDS011;7157;53.144;7.570;2023-11-21T11:50:01;9.68;;;5.53;;
14153;SDS011;7157;53.144;7.570;2023-11-21T12:00:13;11.45;;;5.97;;
14153;SDS011;7157;53.144;7.570;2023-11-21T12:10:21;20.73;;;5.57;;
14153;SDS011;7157;53.144;7.570;2023-11-21T12:20:26;11.50;;;5.35;;
14153;SDS011;7157;53.144;7.570;2023-11-21T12:30:32;8.63;;;4.68;;
14153;SDS011;7157;53.144;7.570;2023-11-21T12:40:37;9.15;;;4.85;;
14153;SDS011;7157;53.144;7.570;2023-11-21T12:50:42;9.90;;;5.35;;
14153;SDS011;7157;53.144;7.570;2023-11-21T13:00:48;9.27;;;5.32;;
14153;SDS011;7157;53.144;7.570;2023-11-21T13:10:55;8.30;;;5.07;;
14153;SDS011;7157;53.144;7.570;2023-11-21T13:20:59;9.20;;;5.07;;
14153;SDS011;7157;53.144;7.570;2023-11-21T13:31:06;8.13;;;4.45;;
14153;SDS011;7157;53.144;7.570;2023-11-21T13:41:23;9.20;;;4.30;;
14153;SDS011;7157;53.144;7.570;2023-11-21T13:51:33;10.07;;;4.45;;
14153;SDS011;7157;53.144;7.570;2023-11-21T14:01:41;9.55;;;4.57;;
14153;SDS011;7157;53.144;7.570;2023-11-21T14:11:57;9.30;;;4.38;;
14153;SDS011;7157;53.144;7.570;2023-11-21T14:22:01;7.55;;;4.25;;
14153;SDS011;7157;53.144;7.570;2023-11-21T14:32:06;7.68;;;3.25;;
14153;SDS011;7157;53.144;7.570;2023-11-21T14:42:09;6.60;;;3.70;;
14153;SDS011;7157;53.144;7.570;2023-11-21T14:52:14;8.93;;;4.30;;
14153;SDS011;7157;53.144;7.570;2023-11-21T15:02:33;9.75;;;4.93;;
14153;SDS011;7157;53.144;7.570;2023-11-21T15:13:01;9.93;;;5.05;;
14153;SDS011;7157;53.144;7.570;2023-11-21T15:23:04;11.32;;;5.03;;
14153;SDS011;7157;53.144;7.570;2023-11-21T15:33:09;12.00;;;4.70;;
14153;SDS011;7157;53.144;7.570;2023-11-21T15:43:12;16.80;;;5.18;;
14153;SDS011;7157;53.144;7.570;2023-11-21T15:53:16;10.90;;;5.32;;
14153;SDS011;7157;53.144;7.570;2023-11-21T16:03:19;15.40;;;7.80;;
14153;SDS011;7157;53.144;7.570;2023-11-21T16:13:24;12.20;;;6.68;;
14153;SDS011;7157;53.144;7.570;2023-11-21T16:23:27;14.05;;;9.02;;
14153;SDS011;7157;53.144;7.570;2023-11-21T16:33:31;9.65;;;4.93;;
14153;SDS011;7157;53.144;7.570;2023-11-21T16:43:34;9.20;;;4.40;;
14153;SDS011;7157;53.144;7.570;2023-11-21T16:53:38;7.70;;;4.30;;
14153;SDS011;7157;53.144;7.570;2023-11-21T17:03:44;7.72;;;4.10;;
14153;SDS011;7157;53.144;7.570;2023-11-21T17:13:48;10.65;;;4.15;;
14153;SDS011;7157;53.144;7.570;2023-11-21T17:23:51;9.13;;;5.05;;
14153;SDS011;7157;53.144;7.570;2023-11-21T17:33:55;7.43;;;4.43;;
14153;SDS011;7157;53.144;7.570;2023-11-21T17:43:58;7.05;;;4.43;;
14153;SDS011;7157;53.144;7.570;2023-11-21T17:54:06;9.38;;;4.50;;
14153;SDS011;7157;53.144;7.570;2023-11-21T18:04:09;9.35;;;5.45;;
14153;SDS011;7157;53.144;7.570;2023-11-21T18:14:14;8.63;;;4.72;;
14153;SDS011;7157;53.144;7.570;2023-11-21T18:24:17;8.95;;;5.10;;
14153;SDS011;7157;53.144;7.570;2023-11-21T18:34:21;8.70;;;5.15;;
14153;SDS011;7157;53.144;7.570;2023-11-21T18:44:25;8.88;;;4.75;;
14153;SDS011;7157;53.144;7.570;2023-11-21T18:54:30;9.85;;;4.50;;
14153;SDS011;7157;53.144;7.570;2023-11-21T19:04:32;8.48;;;4.38;;
14153;SDS011;7157;53.144;7.570;2023-11-21T19:14:36;7.90;;;4.10;;
14153;SDS011;7157;53.144;7.570;2023-11-21T19:24:39;7.93;;;4.22;;
14153;SDS011;7157;53.144;7.570;2023-11-21T19:34:44;8.20;;;4.38;;
14153;SDS011;7157;53.144;7.570;2023-11-21T19:44:47;12.23;;;4.85;;
14153;SDS011;7157;53.144;7.570;2023-11-21T19:54:51;11.77;;;4.47;;
14153;SDS011;7157;53.144;7.570;2023-11-21T20:04:54;8.98;;;4.85;;
14153;SDS011;7157;53.144;7.570;2023-11-21T20:14:59;8.30;;;4.60;;
14153;SDS011;7157;53.144;7.570;2023-11-21T20:25:01;7.93;;;4.32;;
14153;SDS011;7157;53.144;7.570;2023-11-21T20:35:06;10.15;;;4.97;;
14153;SDS011;7157;53.144;7.570;2023-11-21T20:45:11;17.15;;;7.07;;
14153;SDS011;7157;53.144;7.570;2023-11-21T20:55:17;12.57;;;5.60;;
14153;SDS011;7157;53.144;7.570;2023-11-21T21:05:20;8.88;;;5.28;;
14153;SDS011;7157;53.144;7.570;2023-11-21T21:15:27;13.90;;;5.70;;
14153;SDS011;7157;53.144;7.570;2023-11-21T21:25:30;13.25;;;6.18;;
14153;SDS011;7157;53.144;7.570;2023-11-21T21:35:34;16.60;;;7.18;;
14153;SDS011;7157;53.144;7.570;2023-11-21T21:45:37;9.68;;;5.45;;
14153;SDS011;7157;53.144;7.570;2023-11-21T21:55:42;12.70;;;5.32;;
14153;SDS011;7157;53.144;7.570;2023-11-21T22:05:45;10.25;;;5.50;;
14153;SDS011;7157;53.144;7.570;2023-11-21T22:15:49;11.98;;;6.10;;
14153;SDS011;7157;53.144;7.570;2023-11-21T22:25:52;12.60;;;5.32;;
14153;SDS011;7157;53.144;7.570;2023-11-21T22:35:56;10.73;;;5.82;;
14153;SDS011;7157;53.144;7.570;2023-11-21T22:46:02;11.13;;;5.10;;
14153;SDS011;7157;53.144;7.570;2023-11-21T22:56:07;14.93;;;5.75;;
14153;SDS011;7157;53.144;7.570;2023-11-21T23:06:10;11.00;;;5.82;;
14153;SDS011;7157;53.144;7.570;2023-11-21T23:16:14;11.23;;;6.20;;
14153;SDS011;7157;53.144;7.570;2023-11-21T23:26:18;10.90;;;5.72;;
14153;SDS011;7157;53.144;7.570;2023-11-21T23:36:22;9.48;;;5.40;;
14153;SDS011;7157;53.144;7.570;2023-11-21T23:46:26;9.32;;;4.82;;
14153;SDS011;7157;53.144;7.570;2023-11-21T23:56:31;10.80;;;5.32;;
